sensor_id;sensor_type;location;lat;lon;timestamp;P1;durP1;ratioP1;P2;durP2;ratioP2
38053;SDS011;23859;50.672;7.164;2023-04-05T00:01:40;10.82;;;5.07;;
38053;SDS011;23859;50.672;7.164;2023-04-05T00:04:06;15.88;;;5.93;;
38053;SDS011;23859;50.672;7.164;2023-04-05T00:06:33;14.55;;;6.00;;
38053;SDS011;23859;50.672;7.164;2023-04-05T00:09:00;10.55;;;5.50;;
38053;SDS011;23859;50.672;7.164;2023-04-05T00:11:28;11.30;;;6.20;;
38053;SDS011;23859;50.672;7.164;2023-04-05T00:13:55;9.55;;;5.75;;
38053;SDS011;23859;50.672;7.164;2023-04-05T00:16:25;13.88;;;5.57;;
38053;SDS011;23859;50.672;7.164;2023-04-05T00:18:53;11.75;;;6.35;;
38053;SDS011;23859;50.672;7.164;2023-04-05T00:21:22;13.32;;;6.35;;
38053;SDS011;23859;50.672;7.164;2023-04-05T00:23:52;14.85;;;7.03;;
38053;SDS011;23859;50.672;7.164;2023-04-05T00:26:22;15.57;;;6.70;;
38053;SDS011;23859;50.672;7.164;2023-04-05T00:28:49;17.10;;;6.30;;
38053;SDS011;23859;50.672;7.164;2023-04-05T00:31:16;12.15;;;5.85;;
38053;SDS011;23859;50.672;7.164;2023-04-05T00:33:43;16.83;;;6.25;;
38053;SDS011;23859;50.672;7.164;2023-04-05T00:36:19;11.98;;;6.18;;
38053;SDS011;23859;50.672;7.164;2023-04-05T00:38:45;12.30;;;6.60;;
38053;SDS011;23859;50.672;7.164;2023-04-05T00:41:13;13.77;;;6.20;;
38053;SDS011;23859;50.672;7.164;2023-04-05T00:43:40;11.23;;;6.60;;
38053;SDS011;23859;50.672;7.164;2023-04-05T00:46:07;11.80;;;6.60;;
38053;SDS011;23859;50.672;7.164;2023-04-05T00:48:33;19.33;;;7.50;;
38053;SDS011;23859;50.672;7.164;2023-04-05T00:51:00;11.50;;;6.30;;
38053;SDS011;23859;50.672;7.164;2023-04-05T00:53:26;16.30;;;7.53;;
38053;SDS011;23859;50.672;7.164;2023-04-05T00:55:53;12.63;;;6.13;;
38053;SDS011;23859;50.672;7.164;2023-04-05T00:58:19;12.27;;;6.55;;
38053;SDS011;23859;50.672;7.164;2023-04-05T01:03:27;13.60;;;6.88;;
38053;SDS011;23859;50.672;7.164;2023-04-05T01:11:10;15.48;;;5.72;;
38053;SDS011;23859;50.672;7.164;2023-04-05T01:13:38;13.18;;;6.85;;
38053;SDS011;23859;50.672;7.164;2023-04-05T01:16:05;12.40;;;6.80;;
38053;SDS011;23859;50.672;7.164;2023-04-05T01:18:31;13.57;;;6.43;;
38053;SDS011;23859;50.672;7.164;2023-04-05T01:21:10;10.15;;;6.47;;
38053;SDS011;23859;50.672;7.164;2023-04-05T01:26:45;14.63;;;7.88;;
38053;SDS011;23859;50.672;7.164;2023-04-05T01:29:32;10.38;;;6.45;;
38053;SDS011;23859;50.672;7.164;2023-04-05T01:32:22;17.07;;;5.83;;
38053;SDS011;23859;50.672;7.164;2023-04-05T01:37:40;15.90;;;7.05;;
38053;SDS011;23859;50.672;7.164;2023-04-05T01:40:13;11.68;;;6.53;;
38053;SDS011;23859;50.672;7.164;2023-04-05T01:42:41;11.10;;;6.82;;
38053;SDS011;23859;50.672;7.164;2023-04-05T01:45:10;10.10;;;6.60;;
38053;SDS011;23859;50.672;7.164;2023-04-05T01:47:36;18.40;;;7.18;;
38053;SDS011;23859;50.672;7.164;2023-04-05T01:50:02;15.60;;;7.13;;
38053;SDS011;23859;50.672;7.164;2023-04-05T01:52:28;13.57;;;7.55;;
38053;SDS011;23859;50.672;7.164;2023-04-05T01:54:54;17.20;;;7.13;;
38053;SDS011;23859;50.672;7.164;2023-04-05T01:57:20;12.65;;;6.78;;
38053;SDS011;23859;50.672;7.164;2023-04-05T01:59:47;15.40;;;7.07;;
38053;SDS011;23859;50.672;7.164;2023-04-05T02:02:13;16.58;;;7.43;;
38053;SDS011;23859;50.672;7.164;2023-04-05T02:04:39;15.98;;;7.00;;
38053;SDS011;23859;50.672;7.164;2023-04-05T02:07:06;13.02;;;7.15;;
38053;SDS011;23859;50.672;7.164;2023-04-05T02:09:32;11.90;;;5.80;;
38053;SDS011;23859;50.672;7.164;2023-04-05T02:11:58;17.20;;;7.82;;
38053;SDS011;23859;50.672;7.164;2023-04-05T02:14:25;16.98;;;7.03;;
38053;SDS011;23859;50.672;7.164;2023-04-05T02:16:51;14.02;;;7.25;;
38053;SDS011;23859;50.672;7.164;2023-04-05T02:19:20;11.65;;;6.60;;
38053;SDS011;23859;50.672;7.164;2023-04-05T02:21:50;10.98;;;7.03;;
38053;SDS011;23859;50.672;7.164;2023-04-05T02:24:18;13.32;;;7.38;;
38053;SDS011;23859;50.672;7.164;2023-04-05T02:26:44;14.40;;;6.97;;
38053;SDS011;23859;50.672;7.164;2023-04-05T02:29:10;10.82;;;6.88;;
38053;SDS011;23859;50.672;7.164;2023-04-05T02:31:36;15.02;;;6.28;;
38053;SDS011;23859;50.672;7.164;2023-04-05T02:34:02;11.45;;;6.80;;
38053;SDS011;23859;50.672;7.164;2023-04-05T02:36:29;16.83;;;8.05;;
38053;SDS011;23859;50.672;7.164;2023-04-05T02:38:55;15.25;;;8.02;;
38053;SDS011;23859;50.672;7.164;2023-04-05T02:41:21;14.73;;;9.73;;
38053;SDS011;23859;50.672;7.164;2023-04-05T02:43:49;15.68;;;7.20;;
38053;SDS011;23859;50.672;7.164;2023-04-05T02:46:15;13.10;;;6.47;;
38053;SDS011;23859;50.672;7.164;2023-04-05T02:48:41;12.93;;;7.30;;
38053;SDS011;23859;50.672;7.164;2023-04-05T02:51:07;11.00;;;6.85;;
38053;SDS011;23859;50.672;7.164;2023-04-05T02:53:33;12.80;;;7.78;;
38053;SDS011;23859;50.672;7.164;2023-04-05T02:55:59;16.05;;;7.80;;
38053;SDS011;23859;50.672;7.164;2023-04-05T02:58:25;13.45;;;7.18;;
38053;SDS011;23859;50.672;7.164;2023-04-05T03:00:52;14.32;;;7.20;;
38053;SDS011;23859;50.672;7.164;2023-04-05T03:03:20;14.55;;;7.03;;
38053;SDS011;23859;50.672;7.164;2023-04-05T03:05:47;14.98;;;6.60;;
38053;SDS011;23859;50.672;7.164;2023-04-05T03:08:20;12.73;;;7.57;;
38053;SDS011;23859;50.672;7.164;2023-04-05T03:10:47;18.90;;;7.72;;
38053;SDS011;23859;50.672;7.164;2023-04-05T03:13:15;14.52;;;7.28;;
38053;SDS011;23859;50.672;7.164;2023-04-05T03:15:42;16.50;;;9.15;;
38053;SDS011;23859;50.672;7.164;2023-04-05T03:18:08;14.70;;;8.88;;
38053;SDS011;23859;50.672;7.164;2023-04-05T03:20:35;17.67;;;8.38;;
38053;SDS011;23859;50.672;7.164;2023-04-05T03:23:07;19.17;;;9.77;;
38053;SDS011;23859;50.672;7.164;2023-04-05T03:25:33;19.67;;;8.65;;
38053;SDS011;23859;50.672;7.164;2023-04-05T03:28:01;18.88;;;8.95;;
38053;SDS011;23859;50.672;7.164;2023-04-05T03:30:29;23.20;;;10.13;;
38053;SDS011;23859;50.672;7.164;2023-04-05T03:32:56;21.90;;;8.93;;
38053;SDS011;23859;50.672;7.164;2023-04-05T03:35:25;17.95;;;8.95;;
38053;SDS011;23859;50.672;7.164;2023-04-05T03:37:57;18.58;;;8.48;;
38053;SDS011;23859;50.672;7.164;2023-04-05T03:40:23;13.93;;;7.60;;
38053;SDS011;23859;50.672;7.164;2023-04-05T03:42:49;19.15;;;9.13;;
38053;SDS011;23859;50.672;7.164;2023-04-05T03:45:15;19.10;;;7.43;;
38053;SDS011;23859;50.672;7.164;2023-04-05T03:47:42;13.23;;;8.20;;
38053;SDS011;23859;50.672;7.164;2023-04-05T03:50:08;10.30;;;6.72;;
38053;SDS011;23859;50.672;7.164;2023-04-05T03:52:34;14.00;;;8.13;;
38053;SDS011;23859;50.672;7.164;2023-04-05T03:55:01;13.48;;;8.00;;
38053;SDS011;23859;50.672;7.164;2023-04-05T03:57:27;13.63;;;8.20;;
38053;SDS011;23859;50.672;7.164;2023-04-05T03:59:53;12.82;;;7.45;;
38053;SDS011;23859;50.672;7.164;2023-04-05T04:02:19;15.02;;;7.47;;
38053;SDS011;23859;50.672;7.164;2023-04-05T04:04:46;20.55;;;9.40;;
38053;SDS011;23859;50.672;7.164;2023-04-05T04:07:12;16.77;;;9.13;;
38053;SDS011;23859;50.672;7.164;2023-04-05T04:09:38;15.20;;;7.78;;
38053;SDS011;23859;50.672;7.164;2023-04-05T04:12:05;18.17;;;8.38;;
38053;SDS011;23859;50.672;7.164;2023-04-05T04:14:33;15.60;;;8.30;;
38053;SDS011;23859;50.672;7.164;2023-04-05T04:16:59;14.52;;;8.35;;
38053;SDS011;23859;50.672;7.164;2023-04-05T04:19:25;18.70;;;9.68;;
38053;SDS011;23859;50.672;7.164;2023-04-05T04:21:51;14.38;;;8.55;;
38053;SDS011;23859;50.672;7.164;2023-04-05T04:24:19;15.25;;;8.95;;
38053;SDS011;23859;50.672;7.164;2023-04-05T04:26:46;14.20;;;8.45;;
38053;SDS011;23859;50.672;7.164;2023-04-05T04:29:13;13.40;;;8.27;;
38053;SDS011;23859;50.672;7.164;2023-04-05T04:31:42;13.80;;;7.65;;
38053;SDS011;23859;50.672;7.164;2023-04-05T04:34:12;12.80;;;7.80;;
38053;SDS011;23859;50.672;7.164;2023-04-05T04:36:38;26.83;;;9.70;;
38053;SDS011;23859;50.672;7.164;2023-04-05T04:39:07;15.02;;;8.68;;
38053;SDS011;23859;50.672;7.164;2023-04-05T04:41:34;24.27;;;10.57;;
38053;SDS011;23859;50.672;7.164;2023-04-05T04:44:02;12.60;;;7.63;;
38053;SDS011;23859;50.672;7.164;2023-04-05T04:46:29;15.52;;;8.98;;
38053;SDS011;23859;50.672;7.164;2023-04-05T04:49:01;17.02;;;9.15;;
38053;SDS011;23859;50.672;7.164;2023-04-05T04:51:30;16.02;;;8.85;;
38053;SDS011;23859;50.672;7.164;2023-04-05T04:53:57;14.02;;;7.93;;
38053;SDS011;23859;50.672;7.164;2023-04-05T04:56:23;14.25;;;9.27;;
38053;SDS011;23859;50.672;7.164;2023-04-05T04:58:51;14.98;;;9.43;;
38053;SDS011;23859;50.672;7.164;2023-04-05T05:01:19;11.98;;;8.05;;
38053;SDS011;23859;50.672;7.164;2023-04-05T05:03:46;14.25;;;8.68;;
38053;SDS011;23859;50.672;7.164;2023-04-05T05:06:15;16.23;;;8.88;;
38053;SDS011;23859;50.672;7.164;2023-04-05T05:08:43;19.20;;;8.07;;
38053;SDS011;23859;50.672;7.164;2023-04-05T05:11:11;13.55;;;8.00;;
38053;SDS011;23859;50.672;7.164;2023-04-05T05:13:37;15.57;;;8.68;;
38053;SDS011;23859;50.672;7.164;2023-04-05T05:16:03;16.77;;;8.30;;
38053;SDS011;23859;50.672;7.164;2023-04-05T05:18:30;16.80;;;8.70;;
38053;SDS011;23859;50.672;7.164;2023-04-05T05:20:56;16.27;;;9.13;;
38053;SDS011;23859;50.672;7.164;2023-04-05T05:23:22;14.70;;;9.00;;
38053;SDS011;23859;50.672;7.164;2023-04-05T05:25:48;17.25;;;9.70;;
38053;SDS011;23859;50.672;7.164;2023-04-05T05:28:15;17.42;;;9.35;;
38053;SDS011;23859;50.672;7.164;2023-04-05T05:30:41;18.35;;;10.07;;
38053;SDS011;23859;50.672;7.164;2023-04-05T05:33:07;15.63;;;9.15;;
38053;SDS011;23859;50.672;7.164;2023-04-05T05:35:33;16.10;;;8.63;;
38053;SDS011;23859;50.672;7.164;2023-04-05T05:38:01;15.00;;;8.20;;
38053;SDS011;23859;50.672;7.164;2023-04-05T05:40:27;14.48;;;8.75;;
38053;SDS011;23859;50.672;7.164;2023-04-05T05:42:53;14.68;;;8.95;;
38053;SDS011;23859;50.672;7.164;2023-04-05T05:45:20;17.35;;;8.15;;
38053;SDS011;23859;50.672;7.164;2023-04-05T05:47:46;14.82;;;8.65;;
38053;SDS011;23859;50.672;7.164;2023-04-05T05:50:12;14.77;;;8.80;;
38053;SDS011;23859;50.672;7.164;2023-04-05T05:52:40;20.65;;;8.98;;
38053;SDS011;23859;50.672;7.164;2023-04-05T05:55:06;15.60;;;8.07;;
38053;SDS011;23859;50.672;7.164;2023-04-05T05:57:33;16.48;;;8.30;;
38053;SDS011;23859;50.672;7.164;2023-04-05T06:00:00;12.57;;;8.00;;
38053;SDS011;23859;50.672;7.164;2023-04-05T06:02:28;11.82;;;8.43;;
38053;SDS011;23859;50.672;7.164;2023-04-05T06:04:56;16.08;;;8.65;;
38053;SDS011;23859;50.672;7.164;2023-04-05T06:07:22;13.55;;;9.05;;
38053;SDS011;23859;50.672;7.164;2023-04-05T06:09:48;17.23;;;9.80;;
38053;SDS011;23859;50.672;7.164;2023-04-05T06:12:14;15.40;;;8.50;;
38053;SDS011;23859;50.672;7.164;2023-04-05T06:14:40;12.50;;;8.65;;
38053;SDS011;23859;50.672;7.164;2023-04-05T06:17:06;16.42;;;8.40;;
38053;SDS011;23859;50.672;7.164;2023-04-05T06:19:32;14.20;;;7.90;;
38053;SDS011;23859;50.672;7.164;2023-04-05T06:21:58;19.48;;;9.13;;
38053;SDS011;23859;50.672;7.164;2023-04-05T06:24:25;16.42;;;8.07;;
38053;SDS011;23859;50.672;7.164;2023-04-05T06:26:55;17.75;;;8.50;;
38053;SDS011;23859;50.672;7.164;2023-04-05T06:29:22;11.65;;;7.70;;
38053;SDS011;23859;50.672;7.164;2023-04-05T06:31:48;14.80;;;8.32;;
38053;SDS011;23859;50.672;7.164;2023-04-05T06:34:14;13.70;;;8.43;;
38053;SDS011;23859;50.672;7.164;2023-04-05T06:36:40;12.82;;;7.78;;
38053;SDS011;23859;50.672;7.164;2023-04-05T06:39:06;13.10;;;8.13;;
38053;SDS011;23859;50.672;7.164;2023-04-05T06:41:32;11.15;;;7.65;;
38053;SDS011;23859;50.672;7.164;2023-04-05T06:43:58;12.77;;;7.88;;
38053;SDS011;23859;50.672;7.164;2023-04-05T06:46:25;10.73;;;7.55;;
38053;SDS011;23859;50.672;7.164;2023-04-05T06:48:51;14.07;;;8.13;;
38053;SDS011;23859;50.672;7.164;2023-04-05T06:51:18;15.25;;;8.20;;
38053;SDS011;23859;50.672;7.164;2023-04-05T06:53:44;14.63;;;7.35;;
38053;SDS011;23859;50.672;7.164;2023-04-05T06:56:10;15.80;;;7.82;;
38053;SDS011;23859;50.672;7.164;2023-04-05T06:58:36;11.80;;;7.57;;
38053;SDS011;23859;50.672;7.164;2023-04-05T07:01:03;12.38;;;7.43;;
38053;SDS011;23859;50.672;7.164;2023-04-05T07:03:30;11.98;;;7.15;;
38053;SDS011;23859;50.672;7.164;2023-04-05T07:05:57;12.68;;;6.95;;
38053;SDS011;23859;50.672;7.164;2023-04-05T07:08:25;10.43;;;6.35;;
38053;SDS011;23859;50.672;7.164;2023-04-05T07:10:52;10.63;;;5.97;;
38053;SDS011;23859;50.672;7.164;2023-04-05T07:13:19;10.90;;;6.55;;
38053;SDS011;23859;50.672;7.164;2023-04-05T07:15:46;7.28;;;5.28;;
38053;SDS011;23859;50.672;7.164;2023-04-05T07:18:12;7.82;;;5.55;;
38053;SDS011;23859;50.672;7.164;2023-04-05T07:20:41;10.23;;;6.15;;
38053;SDS011;23859;50.672;7.164;2023-04-05T07:23:10;8.73;;;6.07;;
38053;SDS011;23859;50.672;7.164;2023-04-05T07:25:38;8.50;;;5.32;;
38053;SDS011;23859;50.672;7.164;2023-04-05T07:28:05;10.75;;;7.05;;
38053;SDS011;23859;50.672;7.164;2023-04-05T07:30:31;10.90;;;5.55;;
38053;SDS011;23859;50.672;7.164;2023-04-05T07:32:57;11.63;;;6.82;;
38053;SDS011;23859;50.672;7.164;2023-04-05T07:35:23;10.02;;;5.50;;
38053;SDS011;23859;50.672;7.164;2023-04-05T07:37:49;8.32;;;5.47;;
38053;SDS011;23859;50.672;7.164;2023-04-05T07:40:16;9.55;;;5.65;;
38053;SDS011;23859;50.672;7.164;2023-04-05T07:42:42;9.15;;;5.70;;
38053;SDS011;23859;50.672;7.164;2023-04-05T07:45:08;9.48;;;5.82;;
38053;SDS011;23859;50.672;7.164;2023-04-05T07:47:34;7.88;;;4.70;;
38053;SDS011;23859;50.672;7.164;2023-04-05T07:50:01;6.43;;;4.93;;
38053;SDS011;23859;50.672;7.164;2023-04-05T07:52:27;8.10;;;4.32;;
38053;SDS011;23859;50.672;7.164;2023-04-05T07:54:54;5.25;;;4.18;;
38053;SDS011;23859;50.672;7.164;2023-04-05T07:57:20;11.23;;;5.05;;
38053;SDS011;23859;50.672;7.164;2023-04-05T07:59:47;10.88;;;4.97;;
38053;SDS011;23859;50.672;7.164;2023-04-05T08:02:16;9.48;;;5.10;;
38053;SDS011;23859;50.672;7.164;2023-04-05T08:04:42;11.32;;;4.95;;
38053;SDS011;23859;50.672;7.164;2023-04-05T08:07:09;7.40;;;4.85;;
38053;SDS011;23859;50.672;7.164;2023-04-05T08:09:37;8.40;;;4.35;;
38053;SDS011;23859;50.672;7.164;2023-04-05T08:12:04;8.93;;;4.22;;
38053;SDS011;23859;50.672;7.164;2023-04-05T08:14:30;9.15;;;4.20;;
38053;SDS011;23859;50.672;7.164;2023-04-05T08:16:56;9.25;;;4.65;;
38053;SDS011;23859;50.672;7.164;2023-04-05T08:19:22;6.45;;;4.60;;
38053;SDS011;23859;50.672;7.164;2023-04-05T08:21:48;7.78;;;4.75;;
38053;SDS011;23859;50.672;7.164;2023-04-05T08:24:15;7.20;;;4.13;;
38053;SDS011;23859;50.672;7.164;2023-04-05T08:26:41;8.25;;;5.75;;
38053;SDS011;23859;50.672;7.164;2023-04-05T08:29:08;7.90;;;4.78;;
38053;SDS011;23859;50.672;7.164;2023-04-05T08:31:34;6.80;;;3.83;;
38053;SDS011;23859;50.672;7.164;2023-04-05T08:34:00;6.50;;;4.60;;
38053;SDS011;23859;50.672;7.164;2023-04-05T08:36:26;9.23;;;4.80;;
38053;SDS011;23859;50.672;7.164;2023-04-05T08:38:52;5.93;;;3.95;;
38053;SDS011;23859;50.672;7.164;2023-04-05T08:41:19;6.28;;;4.57;;
38053;SDS011;23859;50.672;7.164;2023-04-05T08:46:30;8.75;;;4.43;;
38053;SDS011;23859;50.672;7.164;2023-04-05T08:48:57;8.73;;;4.85;;
38053;SDS011;23859;50.672;7.164;2023-04-05T08:51:24;5.03;;;3.92;;
38053;SDS011;23859;50.672;7.164;2023-04-05T08:53:51;7.43;;;4.80;;
38053;SDS011;23859;50.672;7.164;2023-04-05T08:56:19;6.70;;;4.35;;
38053;SDS011;23859;50.672;7.164;2023-04-05T08:58:56;9.32;;;4.68;;
38053;SDS011;23859;50.672;7.164;2023-04-05T09:01:30;6.40;;;4.78;;
38053;SDS011;23859;50.672;7.164;2023-04-05T09:04:08;7.95;;;4.72;;
38053;SDS011;23859;50.672;7.164;2023-04-05T09:06:49;6.82;;;4.07;;
38053;SDS011;23859;50.672;7.164;2023-04-05T09:09:16;6.22;;;4.57;;
38053;SDS011;23859;50.672;7.164;2023-04-05T09:11:44;7.10;;;3.92;;
38053;SDS011;23859;50.672;7.164;2023-04-05T09:14:11;5.65;;;4.10;;
38053;SDS011;23859;50.672;7.164;2023-04-05T09:16:38;6.10;;;3.88;;
38053;SDS011;23859;50.672;7.164;2023-04-05T09:19:05;5.28;;;3.72;;
38053;SDS011;23859;50.672;7.164;2023-04-05T09:24:30;8.77;;;3.92;;
38053;SDS011;23859;50.672;7.164;2023-04-05T09:29:36;6.25;;;4.65;;
38053;SDS011;23859;50.672;7.164;2023-04-05T09:32:04;7.28;;;4.05;;
38053;SDS011;23859;50.672;7.164;2023-04-05T09:34:31;10.77;;;4.68;;
38053;SDS011;23859;50.672;7.164;2023-04-05T09:37:01;7.03;;;4.32;;
38053;SDS011;23859;50.672;7.164;2023-04-05T09:39:48;7.75;;;4.70;;
38053;SDS011;23859;50.672;7.164;2023-04-05T09:42:16;6.93;;;3.65;;
38053;SDS011;23859;50.672;7.164;2023-04-05T09:47:18;6.35;;;4.40;;
38053;SDS011;23859;50.672;7.164;2023-04-05T09:49:46;8.30;;;4.57;;
38053;SDS011;23859;50.672;7.164;2023-04-05T09:52:19;5.65;;;4.28;;
38053;SDS011;23859;50.672;7.164;2023-04-05T09:54:46;9.73;;;4.78;;
38053;SDS011;23859;50.672;7.164;2023-04-05T09:57:14;10.07;;;4.75;;
38053;SDS011;23859;50.672;7.164;2023-04-05T09:59:42;8.27;;;5.45;;
38053;SDS011;23859;50.672;7.164;2023-04-05T10:02:09;8.23;;;4.72;;
38053;SDS011;23859;50.672;7.164;2023-04-05T10:04:39;6.80;;;4.22;;
38053;SDS011;23859;50.672;7.164;2023-04-05T10:07:10;6.43;;;4.35;;
38053;SDS011;23859;50.672;7.164;2023-04-05T10:09:38;6.40;;;4.38;;
38053;SDS011;23859;50.672;7.164;2023-04-05T10:12:05;10.23;;;4.82;;
38053;SDS011;23859;50.672;7.164;2023-04-05T10:14:36;9.40;;;4.88;;
38053;SDS011;23859;50.672;7.164;2023-04-05T10:17:12;7.40;;;4.70;;
38053;SDS011;23859;50.672;7.164;2023-04-05T10:22:40;7.28;;;4.63;;
38053;SDS011;23859;50.672;7.164;2023-04-05T10:25:23;9.20;;;5.10;;
38053;SDS011;23859;50.672;7.164;2023-04-05T10:27:54;8.35;;;4.63;;
38053;SDS011;23859;50.672;7.164;2023-04-05T10:30:33;7.78;;;4.97;;
38053;SDS011;23859;50.672;7.164;2023-04-05T10:38:26;7.72;;;4.40;;
38053;SDS011;23859;50.672;7.164;2023-04-05T10:40:54;9.93;;;4.45;;
38053;SDS011;23859;50.672;7.164;2023-04-05T10:43:29;6.45;;;4.13;;
38053;SDS011;23859;50.672;7.164;2023-04-05T10:45:58;5.45;;;3.63;;
38053;SDS011;23859;50.672;7.164;2023-04-05T10:48:29;5.85;;;3.95;;
38053;SDS011;23859;50.672;7.164;2023-04-05T10:51:12;7.32;;;4.35;;
38053;SDS011;23859;50.672;7.164;2023-04-05T10:53:39;6.35;;;3.90;;
38053;SDS011;23859;50.672;7.164;2023-04-05T10:56:06;6.85;;;3.80;;
38053;SDS011;23859;50.672;7.164;2023-04-05T10:58:33;14.73;;;8.95;;
38053;SDS011;23859;50.672;7.164;2023-04-05T11:01:01;5.43;;;3.95;;
38053;SDS011;23859;50.672;7.164;2023-04-05T11:03:44;6.25;;;4.05;;
38053;SDS011;23859;50.672;7.164;2023-04-05T11:06:21;5.72;;;4.15;;
38053;SDS011;23859;50.672;7.164;2023-04-05T11:08:58;13.00;;;5.30;;
38053;SDS011;23859;50.672;7.164;2023-04-05T11:11:39;7.55;;;3.75;;
38053;SDS011;23859;50.672;7.164;2023-04-05T11:16:48;4.60;;;3.97;;
38053;SDS011;23859;50.672;7.164;2023-04-05T11:21:44;7.88;;;5.22;;
38053;SDS011;23859;50.672;7.164;2023-04-05T11:24:11;8.27;;;3.60;;
38053;SDS011;23859;50.672;7.164;2023-04-05T11:29:17;7.32;;;4.00;;
38053;SDS011;23859;50.672;7.164;2023-04-05T11:31:59;6.90;;;4.25;;
38053;SDS011;23859;50.672;7.164;2023-04-05T11:34:32;6.65;;;3.97;;
38053;SDS011;23859;50.672;7.164;2023-04-05T11:37:00;6.32;;;4.43;;
38053;SDS011;23859;50.672;7.164;2023-04-05T11:39:26;7.07;;;3.75;;
38053;SDS011;23859;50.672;7.164;2023-04-05T11:42:02;7.57;;;4.00;;
38053;SDS011;23859;50.672;7.164;2023-04-05T11:44:43;5.32;;;3.88;;
38053;SDS011;23859;50.672;7.164;2023-04-05T11:47:11;6.05;;;3.80;;
38053;SDS011;23859;50.672;7.164;2023-04-05T11:49:38;4.63;;;3.30;;
38053;SDS011;23859;50.672;7.164;2023-04-05T11:52:12;9.77;;;3.80;;
38053;SDS011;23859;50.672;7.164;2023-04-05T11:54:40;5.60;;;3.92;;
38053;SDS011;23859;50.672;7.164;2023-04-05T11:57:22;5.70;;;3.60;;
38053;SDS011;23859;50.672;7.164;2023-04-05T11:59:49;6.32;;;4.05;;
38053;SDS011;23859;50.672;7.164;2023-04-05T12:02:16;8.60;;;4.05;;
38053;SDS011;23859;50.672;7.164;2023-04-05T12:04:42;6.00;;;3.97;;
38053;SDS011;23859;50.672;7.164;2023-04-05T12:09:55;11.05;;;4.40;;
38053;SDS011;23859;50.672;7.164;2023-04-05T12:12:21;7.35;;;3.53;;
38053;SDS011;23859;50.672;7.164;2023-04-05T12:14:47;7.97;;;3.78;;
38053;SDS011;23859;50.672;7.164;2023-04-05T12:17:13;4.65;;;4.05;;
38053;SDS011;23859;50.672;7.164;2023-04-05T12:19:40;5.13;;;3.83;;
38053;SDS011;23859;50.672;7.164;2023-04-05T12:22:07;6.45;;;3.78;;
38053;SDS011;23859;50.672;7.164;2023-04-05T12:24:33;5.45;;;3.78;;
38053;SDS011;23859;50.672;7.164;2023-04-05T12:27:00;4.85;;;3.70;;
38053;SDS011;23859;50.672;7.164;2023-04-05T12:29:26;5.45;;;3.70;;
38053;SDS011;23859;50.672;7.164;2023-04-05T12:31:52;6.50;;;4.20;;
38053;SDS011;23859;50.672;7.164;2023-04-05T12:34:23;4.63;;;3.72;;
38053;SDS011;23859;50.672;7.164;2023-04-05T12:36:50;5.47;;;4.20;;
38053;SDS011;23859;50.672;7.164;2023-04-05T12:39:16;3.92;;;3.55;;
38053;SDS011;23859;50.672;7.164;2023-04-05T12:41:42;6.35;;;3.70;;
38053;SDS011;23859;50.672;7.164;2023-04-05T12:44:14;4.10;;;3.22;;
38053;SDS011;23859;50.672;7.164;2023-04-05T12:46:52;4.38;;;3.50;;
38053;SDS011;23859;50.672;7.164;2023-04-05T12:49:24;6.85;;;4.00;;
38053;SDS011;23859;50.672;7.164;2023-04-05T12:51:52;5.30;;;3.38;;
38053;SDS011;23859;50.672;7.164;2023-04-05T12:54:22;5.68;;;3.30;;
38053;SDS011;23859;50.672;7.164;2023-04-05T12:56:48;4.25;;;3.63;;
38053;SDS011;23859;50.672;7.164;2023-04-05T12:59:16;5.38;;;3.95;;
38053;SDS011;23859;50.672;7.164;2023-04-05T13:01:42;7.38;;;4.15;;
38053;SDS011;23859;50.672;7.164;2023-04-05T13:04:08;4.70;;;3.72;;
38053;SDS011;23859;50.672;7.164;2023-04-05T13:06:34;11.23;;;3.75;;
38053;SDS011;23859;50.672;7.164;2023-04-05T13:09:00;6.45;;;4.50;;
38053;SDS011;23859;50.672;7.164;2023-04-05T13:11:27;6.03;;;3.80;;
38053;SDS011;23859;50.672;7.164;2023-04-05T13:13:53;7.40;;;3.90;;
38053;SDS011;23859;50.672;7.164;2023-04-05T13:16:19;5.82;;;3.63;;
38053;SDS011;23859;50.672;7.164;2023-04-05T13:18:45;5.20;;;3.90;;
38053;SDS011;23859;50.672;7.164;2023-04-05T13:21:11;6.60;;;3.60;;
38053;SDS011;23859;50.672;7.164;2023-04-05T13:23:38;7.05;;;3.60;;
38053;SDS011;23859;50.672;7.164;2023-04-05T13:26:05;5.85;;;3.88;;
38053;SDS011;23859;50.672;7.164;2023-04-05T13:28:32;6.85;;;4.15;;
38053;SDS011;23859;50.672;7.164;2023-04-05T13:30:58;8.63;;;4.65;;
38053;SDS011;23859;50.672;7.164;2023-04-05T13:33:26;6.05;;;4.10;;
38053;SDS011;23859;50.672;7.164;2023-04-05T13:35:52;6.45;;;4.30;;
38053;SDS011;23859;50.672;7.164;2023-04-05T13:38:18;6.45;;;4.63;;
38053;SDS011;23859;50.672;7.164;2023-04-05T13:40:45;7.32;;;4.50;;
38053;SDS011;23859;50.672;7.164;2023-04-05T13:43:11;6.53;;;4.22;;
38053;SDS011;23859;50.672;7.164;2023-04-05T13:45:38;6.25;;;4.45;;
38053;SDS011;23859;50.672;7.164;2023-04-05T13:48:04;7.53;;;4.80;;
38053;SDS011;23859;50.672;7.164;2023-04-05T13:50:30;5.78;;;4.20;;
38053;SDS011;23859;50.672;7.164;2023-04-05T13:52:56;5.53;;;4.05;;
38053;SDS011;23859;50.672;7.164;2023-04-05T13:55:22;6.13;;;3.83;;
38053;SDS011;23859;50.672;7.164;2023-04-05T13:57:48;5.60;;;3.67;;
38053;SDS011;23859;50.672;7.164;2023-04-05T14:00:14;3.40;;;3.00;;
38053;SDS011;23859;50.672;7.164;2023-04-05T14:02:40;4.95;;;3.63;;
38053;SDS011;23859;50.672;7.164;2023-04-05T14:05:07;7.10;;;4.53;;
38053;SDS011;23859;50.672;7.164;2023-04-05T14:07:33;6.38;;;3.97;;
38053;SDS011;23859;50.672;7.164;2023-04-05T14:10:00;6.05;;;4.35;;
38053;SDS011;23859;50.672;7.164;2023-04-05T14:12:26;5.10;;;3.95;;
38053;SDS011;23859;50.672;7.164;2023-04-05T14:14:52;5.95;;;4.40;;
38053;SDS011;23859;50.672;7.164;2023-04-05T14:17:18;7.20;;;4.70;;
38053;SDS011;23859;50.672;7.164;2023-04-05T14:19:44;4.72;;;4.20;;
38053;SDS011;23859;50.672;7.164;2023-04-05T14:22:10;7.03;;;4.22;;
38053;SDS011;23859;50.672;7.164;2023-04-05T14:24:36;5.65;;;4.53;;
38053;SDS011;23859;50.672;7.164;2023-04-05T14:27:02;7.10;;;4.43;;
38053;SDS011;23859;50.672;7.164;2023-04-05T14:29:28;5.93;;;4.20;;
38053;SDS011;23859;50.672;7.164;2023-04-05T14:31:54;7.45;;;4.63;;
38053;SDS011;23859;50.672;7.164;2023-04-05T14:34:20;7.70;;;4.57;;
38053;SDS011;23859;50.672;7.164;2023-04-05T14:36:46;6.35;;;4.13;;
38053;SDS011;23859;50.672;7.164;2023-04-05T14:39:12;9.68;;;5.15;;
38053;SDS011;23859;50.672;7.164;2023-04-05T14:41:38;8.00;;;5.45;;
38053;SDS011;23859;50.672;7.164;2023-04-05T14:44:05;10.65;;;6.28;;
38053;SDS011;23859;50.672;7.164;2023-04-05T14:46:31;11.70;;;6.53;;
38053;SDS011;23859;50.672;7.164;2023-04-05T14:48:57;8.45;;;6.20;;
38053;SDS011;23859;50.672;7.164;2023-04-05T14:51:23;8.15;;;6.38;;
38053;SDS011;23859;50.672;7.164;2023-04-05T14:53:50;14.73;;;6.63;;
38053;SDS011;23859;50.672;7.164;2023-04-05T14:56:16;10.75;;;6.43;;
38053;SDS011;23859;50.672;7.164;2023-04-05T14:58:42;7.55;;;5.95;;
38053;SDS011;23859;50.672;7.164;2023-04-05T15:01:08;7.13;;;5.15;;
38053;SDS011;23859;50.672;7.164;2023-04-05T15:03:34;6.55;;;4.60;;
38053;SDS011;23859;50.672;7.164;2023-04-05T15:06:02;5.15;;;4.60;;
38053;SDS011;23859;50.672;7.164;2023-04-05T15:08:29;10.13;;;4.50;;
38053;SDS011;23859;50.672;7.164;2023-04-05T15:10:55;7.65;;;5.38;;
38053;SDS011;23859;50.672;7.164;2023-04-05T15:13:22;7.75;;;5.65;;
38053;SDS011;23859;50.672;7.164;2023-04-05T15:15:50;8.48;;;4.95;;
38053;SDS011;23859;50.672;7.164;2023-04-05T15:18:16;9.55;;;5.50;;
38053;SDS011;23859;50.672;7.164;2023-04-05T15:20:42;12.27;;;5.90;;
38053;SDS011;23859;50.672;7.164;2023-04-05T15:23:08;9.90;;;6.03;;
38053;SDS011;23859;50.672;7.164;2023-04-05T15:25:34;10.20;;;5.10;;
38053;SDS011;23859;50.672;7.164;2023-04-05T15:28:00;5.72;;;4.75;;